sensor_id;sensor_type;location;lat;lon;timestamp;P1;durP1;ratioP1;P2;durP2;ratioP2
83560;SDS011;73534;52.584;13.392;2023-11-18T00:01:43;10.02;;;6.15;;
83560;SDS011;73534;52.584;13.392;2023-11-18T00:04:08;7.45;;;6.30;;
83560;SDS011;73534;52.584;13.392;2023-11-18T00:06:40;10.07;;;6.82;;
83560;SDS011;73534;52.584;13.392;2023-11-18T00:09:05;8.25;;;5.90;;
83560;SDS011;73534;52.584;13.392;2023-11-18T00:11:31;9.05;;;6.95;;
83560;SDS011;73534;52.584;13.392;2023-11-18T00:13:56;9.80;;;6.82;;
83560;SDS011;73534;52.584;13.392;2023-11-18T00:16:22;10.20;;;6.70;;
83560;SDS011;73534;52.584;13.392;2023-11-18T00:18:47;8.27;;;6.57;;
83560;SDS011;73534;52.584;13.392;2023-11-18T00:21:13;9.15;;;6.03;;
83560;SDS011;73534;52.584;13.392;2023-11-18T00:23:38;8.85;;;6.70;;
83560;SDS011;73534;52.584;13.392;2023-11-18T00:26:04;8.57;;;6.43;;
83560;SDS011;73534;52.584;13.392;2023-11-18T00:28:32;7.93;;;5.50;;
83560;SDS011;73534;52.584;13.392;2023-11-18T00:30:57;11.82;;;7.20;;
83560;SDS011;73534;52.584;13.392;2023-11-18T00:33:22;8.77;;;6.40;;
83560;SDS011;73534;52.584;13.392;2023-11-18T00:35:47;9.40;;;6.47;;
83560;SDS011;73534;52.584;13.392;2023-11-18T00:38:13;9.88;;;6.45;;
83560;SDS011;73534;52.584;13.392;2023-11-18T00:40:38;8.15;;;5.90;;
83560;SDS011;73534;52.584;13.392;2023-11-18T00:43:03;11.00;;;6.45;;
83560;SDS011;73534;52.584;13.392;2023-11-18T00:45:29;9.77;;;6.40;;
83560;SDS011;73534;52.584;13.392;2023-11-18T00:47:54;10.35;;;7.47;;
83560;SDS011;73534;52.584;13.392;2023-11-18T00:50:20;10.15;;;6.43;;
83560;SDS011;73534;52.584;13.392;2023-11-18T00:52:45;8.65;;;6.10;;
83560;SDS011;73534;52.584;13.392;2023-11-18T00:55:14;8.32;;;6.25;;
83560;SDS011;73534;52.584;13.392;2023-11-18T00:57:43;9.13;;;6.05;;
83560;SDS011;73534;52.584;13.392;2023-11-18T01:00:11;9.48;;;6.43;;
83560;SDS011;73534;52.584;13.392;2023-11-18T01:02:39;9.32;;;6.75;;
83560;SDS011;73534;52.584;13.392;2023-11-18T01:05:05;8.73;;;6.03;;
83560;SDS011;73534;52.584;13.392;2023-11-18T01:07:32;11.23;;;7.10;;
83560;SDS011;73534;52.584;13.392;2023-11-18T01:09:57;9.32;;;6.93;;
83560;SDS011;73534;52.584;13.392;2023-11-18T01:12:22;9.18;;;6.40;;
83560;SDS011;73534;52.584;13.392;2023-11-18T01:14:48;10.77;;;7.00;;
83560;SDS011;73534;52.584;13.392;2023-11-18T01:17:13;9.80;;;6.85;;
83560;SDS011;73534;52.584;13.392;2023-11-18T01:19:38;9.35;;;6.53;;
83560;SDS011;73534;52.584;13.392;2023-11-18T01:22:04;9.25;;;6.50;;
83560;SDS011;73534;52.584;13.392;2023-11-18T01:24:32;9.18;;;6.10;;
83560;SDS011;73534;52.584;13.392;2023-11-18T01:26:58;12.30;;;7.57;;
83560;SDS011;73534;52.584;13.392;2023-11-18T01:29:26;8.52;;;6.10;;
83560;SDS011;73534;52.584;13.392;2023-11-18T01:31:51;8.73;;;6.53;;
83560;SDS011;73534;52.584;13.392;2023-11-18T01:34:17;8.10;;;6.15;;
83560;SDS011;73534;52.584;13.392;2023-11-18T01:36:46;9.98;;;6.97;;
83560;SDS011;73534;52.584;13.392;2023-11-18T01:39:11;8.80;;;6.10;;
83560;SDS011;73534;52.584;13.392;2023-11-18T01:41:38;8.30;;;5.95;;
83560;SDS011;73534;52.584;13.392;2023-11-18T01:44:03;8.88;;;5.70;;
83560;SDS011;73534;52.584;13.392;2023-11-18T01:46:29;7.88;;;6.03;;
83560;SDS011;73534;52.584;13.392;2023-11-18T01:48:55;9.43;;;6.07;;
83560;SDS011;73534;52.584;13.392;2023-11-18T01:51:20;10.23;;;6.63;;
83560;SDS011;73534;52.584;13.392;2023-11-18T01:53:48;8.40;;;6.03;;
83560;SDS011;73534;52.584;13.392;2023-11-18T01:56:13;9.60;;;6.00;;
83560;SDS011;73534;52.584;13.392;2023-11-18T01:58:39;8.48;;;6.07;;
83560;SDS011;73534;52.584;13.392;2023-11-18T02:01:05;9.38;;;6.40;;
83560;SDS011;73534;52.584;13.392;2023-11-18T02:03:33;8.60;;;6.28;;
83560;SDS011;73534;52.584;13.392;2023-11-18T02:05:58;11.10;;;6.72;;
83560;SDS011;73534;52.584;13.392;2023-11-18T02:08:24;8.88;;;6.60;;
83560;SDS011;73534;52.584;13.392;2023-11-18T02:10:54;9.48;;;6.35;;
83560;SDS011;73534;52.584;13.392;2023-11-18T02:13:21;8.90;;;6.88;;
83560;SDS011;73534;52.584;13.392;2023-11-18T02:15:50;9.10;;;6.80;;
83560;SDS011;73534;52.584;13.392;2023-11-18T02:18:17;10.07;;;5.88;;
83560;SDS011;73534;52.584;13.392;2023-11-18T02:20:43;8.75;;;6.22;;
83560;SDS011;73534;52.584;13.392;2023-11-18T02:23:08;9.18;;;6.32;;
83560;SDS011;73534;52.584;13.392;2023-11-18T02:25:34;9.48;;;6.45;;
83560;SDS011;73534;52.584;13.392;2023-11-18T02:28:00;11.93;;;6.55;;
83560;SDS011;73534;52.584;13.392;2023-11-18T02:30:25;8.35;;;5.88;;
83560;SDS011;73534;52.584;13.392;2023-11-18T02:33:03;9.77;;;6.50;;
83560;SDS011;73534;52.584;13.392;2023-11-18T02:35:35;8.48;;;6.22;;
83560;SDS011;73534;52.584;13.392;2023-11-18T02:38:03;9.88;;;5.78;;
83560;SDS011;73534;52.584;13.392;2023-11-18T02:40:33;11.10;;;6.60;;
83560;SDS011;73534;52.584;13.392;2023-11-18T02:43:01;9.95;;;6.70;;
83560;SDS011;73534;52.584;13.392;2023-11-18T02:45:30;9.05;;;6.63;;
83560;SDS011;73534;52.584;13.392;2023-11-18T02:47:56;8.77;;;6.07;;
83560;SDS011;73534;52.584;13.392;2023-11-18T02:50:23;13.68;;;6.30;;
83560;SDS011;73534;52.584;13.392;2023-11-18T02:52:49;12.02;;;7.07;;
83560;SDS011;73534;52.584;13.392;2023-11-18T02:55:14;9.18;;;5.88;;
83560;SDS011;73534;52.584;13.392;2023-11-18T02:57:39;11.30;;;6.20;;
83560;SDS011;73534;52.584;13.392;2023-11-18T03:00:05;9.20;;;5.88;;
83560;SDS011;73534;52.584;13.392;2023-11-18T03:02:33;9.75;;;6.47;;
83560;SDS011;73534;52.584;13.392;2023-11-18T03:04:58;10.77;;;6.57;;
83560;SDS011;73534;52.584;13.392;2023-11-18T03:07:23;10.55;;;6.70;;
83560;SDS011;73534;52.584;13.392;2023-11-18T03:09:49;9.57;;;6.20;;
83560;SDS011;73534;52.584;13.392;2023-11-18T03:12:14;10.90;;;7.40;;
83560;SDS011;73534;52.584;13.392;2023-11-18T03:14:39;11.80;;;7.05;;
83560;SDS011;73534;52.584;13.392;2023-11-18T03:17:05;10.05;;;7.38;;
83560;SDS011;73534;52.584;13.392;2023-11-18T03:19:34;10.38;;;6.22;;
83560;SDS011;73534;52.584;13.392;2023-11-18T03:22:02;10.68;;;6.40;;
83560;SDS011;73534;52.584;13.392;2023-11-18T03:24:28;11.43;;;6.72;;
83560;SDS011;73534;52.584;13.392;2023-11-18T03:26:56;9.50;;;6.70;;
83560;SDS011;73534;52.584;13.392;2023-11-18T03:29:21;8.45;;;5.75;;
83560;SDS011;73534;52.584;13.392;2023-11-18T03:31:47;9.63;;;5.88;;
83560;SDS011;73534;52.584;13.392;2023-11-18T03:34:13;7.82;;;5.25;;
83560;SDS011;73534;52.584;13.392;2023-11-18T03:36:44;10.23;;;5.25;;
83560;SDS011;73534;52.584;13.392;2023-11-18T03:39:09;9.35;;;6.43;;
83560;SDS011;73534;52.584;13.392;2023-11-18T03:41:35;7.97;;;5.50;;
83560;SDS011;73534;52.584;13.392;2023-11-18T03:44:02;10.15;;;6.35;;
83560;SDS011;73534;52.584;13.392;2023-11-18T03:46:28;9.23;;;5.63;;
83560;SDS011;73534;52.584;13.392;2023-11-18T03:48:59;8.25;;;5.97;;
83560;SDS011;73534;52.584;13.392;2023-11-18T03:51:24;7.78;;;5.68;;
83560;SDS011;73534;52.584;13.392;2023-11-18T03:53:49;9.50;;;5.95;;
83560;SDS011;73534;52.584;13.392;2023-11-18T03:56:18;12.75;;;5.20;;
83560;SDS011;73534;52.584;13.392;2023-11-18T03:58:44;8.93;;;5.60;;
83560;SDS011;73534;52.584;13.392;2023-11-18T04:01:09;8.55;;;5.88;;
83560;SDS011;73534;52.584;13.392;2023-11-18T04:03:36;7.60;;;5.15;;
83560;SDS011;73534;52.584;13.392;2023-11-18T04:06:01;10.25;;;6.28;;
83560;SDS011;73534;52.584;13.392;2023-11-18T04:08:28;7.97;;;4.97;;
83560;SDS011;73534;52.584;13.392;2023-11-18T04:10:53;7.72;;;5.13;;
83560;SDS011;73534;52.584;13.392;2023-11-18T04:13:19;6.53;;;4.97;;
83560;SDS011;73534;52.584;13.392;2023-11-18T04:15:44;8.07;;;5.93;;
83560;SDS011;73534;52.584;13.392;2023-11-18T04:18:10;9.43;;;6.50;;
83560;SDS011;73534;52.584;13.392;2023-11-18T04:20:35;8.77;;;5.88;;
83560;SDS011;73534;52.584;13.392;2023-11-18T04:23:01;9.63;;;6.38;;
83560;SDS011;73534;52.584;13.392;2023-11-18T04:25:27;7.97;;;5.78;;
83560;SDS011;73534;52.584;13.392;2023-11-18T04:27:52;11.57;;;6.10;;
83560;SDS011;73534;52.584;13.392;2023-11-18T04:30:18;8.85;;;6.13;;
83560;SDS011;73534;52.584;13.392;2023-11-18T04:32:43;9.55;;;6.30;;
83560;SDS011;73534;52.584;13.392;2023-11-18T04:35:08;11.02;;;6.35;;
83560;SDS011;73534;52.584;13.392;2023-11-18T04:37:34;10.35;;;6.10;;
83560;SDS011;73534;52.584;13.392;2023-11-18T04:40:00;11.35;;;7.50;;
83560;SDS011;73534;52.584;13.392;2023-11-18T04:42:28;9.93;;;6.57;;
83560;SDS011;73534;52.584;13.392;2023-11-18T04:44:54;10.98;;;6.28;;
83560;SDS011;73534;52.584;13.392;2023-11-18T04:47:20;8.25;;;6.32;;
83560;SDS011;73534;52.584;13.392;2023-11-18T04:49:45;10.30;;;6.55;;
83560;SDS011;73534;52.584;13.392;2023-11-18T04:52:11;12.10;;;6.53;;
83560;SDS011;73534;52.584;13.392;2023-11-18T04:54:36;10.55;;;6.57;;
83560;SDS011;73534;52.584;13.392;2023-11-18T04:57:01;10.07;;;7.03;;
83560;SDS011;73534;52.584;13.392;2023-11-18T04:59:27;10.30;;;6.97;;
83560;SDS011;73534;52.584;13.392;2023-11-18T05:01:52;9.20;;;6.55;;
83560;SDS011;73534;52.584;13.392;2023-11-18T05:04:18;10.40;;;7.22;;
83560;SDS011;73534;52.584;13.392;2023-11-18T05:06:44;9.77;;;7.38;;
83560;SDS011;73534;52.584;13.392;2023-11-18T05:09:09;9.65;;;7.05;;
83560;SDS011;73534;52.584;13.392;2023-11-18T05:11:34;11.55;;;7.47;;
83560;SDS011;73534;52.584;13.392;2023-11-18T05:14:00;10.07;;;7.32;;
83560;SDS011;73534;52.584;13.392;2023-11-18T05:16:28;11.65;;;7.00;;
83560;SDS011;73534;52.584;13.392;2023-11-18T05:18:53;11.20;;;6.85;;
83560;SDS011;73534;52.584;13.392;2023-11-18T05:21:19;11.35;;;7.97;;
83560;SDS011;73534;52.584;13.392;2023-11-18T05:23:44;15.10;;;8.07;;
83560;SDS011;73534;52.584;13.392;2023-11-18T05:26:09;10.00;;;7.57;;
83560;SDS011;73534;52.584;13.392;2023-11-18T05:28:35;11.23;;;6.97;;
83560;SDS011;73534;52.584;13.392;2023-11-18T05:31:00;11.25;;;7.18;;
83560;SDS011;73534;52.584;13.392;2023-11-18T05:33:29;14.52;;;7.55;;
83560;SDS011;73534;52.584;13.392;2023-11-18T05:35:55;10.13;;;6.40;;
83560;SDS011;73534;52.584;13.392;2023-11-18T05:38:20;11.68;;;6.90;;
83560;SDS011;73534;52.584;13.392;2023-11-18T05:40:48;11.00;;;6.82;;
83560;SDS011;73534;52.584;13.392;2023-11-18T05:43:26;9.48;;;6.15;;
83560;SDS011;73534;52.584;13.392;2023-11-18T05:46:01;10.10;;;7.07;;
83560;SDS011;73534;52.584;13.392;2023-11-18T05:48:43;10.52;;;6.72;;
83560;SDS011;73534;52.584;13.392;2023-11-18T05:51:09;11.02;;;6.20;;
83560;SDS011;73534;52.584;13.392;2023-11-18T05:53:35;10.00;;;6.18;;
83560;SDS011;73534;52.584;13.392;2023-11-18T05:56:04;9.63;;;5.50;;
83560;SDS011;73534;52.584;13.392;2023-11-18T05:58:31;9.38;;;6.68;;
83560;SDS011;73534;52.584;13.392;2023-11-18T06:00:57;12.00;;;7.03;;
83560;SDS011;73534;52.584;13.392;2023-11-18T06:03:23;10.10;;;6.57;;
83560;SDS011;73534;52.584;13.392;2023-11-18T06:05:48;12.18;;;6.45;;
83560;SDS011;73534;52.584;13.392;2023-11-18T06:08:13;11.73;;;7.82;;
83560;SDS011;73534;52.584;13.392;2023-11-18T06:10:39;10.10;;;6.90;;
83560;SDS011;73534;52.584;13.392;2023-11-18T06:13:04;11.60;;;8.07;;
83560;SDS011;73534;52.584;13.392;2023-11-18T06:15:29;11.77;;;7.85;;
83560;SDS011;73534;52.584;13.392;2023-11-18T06:17:55;12.95;;;7.70;;
83560;SDS011;73534;52.584;13.392;2023-11-18T06:20:20;10.48;;;6.97;;
83560;SDS011;73534;52.584;13.392;2023-11-18T06:22:48;14.65;;;7.85;;
83560;SDS011;73534;52.584;13.392;2023-11-18T06:25:13;13.02;;;7.40;;
83560;SDS011;73534;52.584;13.392;2023-11-18T06:27:39;15.50;;;8.52;;
83560;SDS011;73534;52.584;13.392;2023-11-18T06:30:04;11.65;;;7.50;;
83560;SDS011;73534;52.584;13.392;2023-11-18T06:32:31;11.07;;;7.18;;
83560;SDS011;73534;52.584;13.392;2023-11-18T06:34:56;12.70;;;7.82;;
83560;SDS011;73534;52.584;13.392;2023-11-18T06:37:22;13.02;;;8.57;;
83560;SDS011;73534;52.584;13.392;2023-11-18T06:39:47;14.15;;;9.65;;
83560;SDS011;73534;52.584;13.392;2023-11-18T06:42:13;16.17;;;8.93;;
83560;SDS011;73534;52.584;13.392;2023-11-18T06:44:39;15.07;;;8.38;;
83560;SDS011;73534;52.584;13.392;2023-11-18T06:47:05;13.98;;;8.00;;
83560;SDS011;73534;52.584;13.392;2023-11-18T06:49:31;17.35;;;9.02;;
83560;SDS011;73534;52.584;13.392;2023-11-18T06:51:59;14.27;;;9.20;;
83560;SDS011;73534;52.584;13.392;2023-11-18T06:54:29;15.23;;;9.15;;
83560;SDS011;73534;52.584;13.392;2023-11-18T06:56:55;12.13;;;7.90;;
83560;SDS011;73534;52.584;13.392;2023-11-18T06:59:21;14.27;;;8.57;;
83560;SDS011;73534;52.584;13.392;2023-11-18T07:01:46;14.05;;;8.73;;
83560;SDS011;73534;52.584;13.392;2023-11-18T07:04:11;14.18;;;8.73;;
83560;SDS011;73534;52.584;13.392;2023-11-18T07:06:37;14.77;;;8.73;;
83560;SDS011;73534;52.584;13.392;2023-11-18T07:09:06;14.02;;;8.05;;
83560;SDS011;73534;52.584;13.392;2023-11-18T07:11:42;17.45;;;9.40;;
83560;SDS011;73534;52.584;13.392;2023-11-18T07:14:08;12.93;;;8.48;;
83560;SDS011;73534;52.584;13.392;2023-11-18T07:16:34;13.80;;;8.23;;
83560;SDS011;73534;52.584;13.392;2023-11-18T07:18:59;13.23;;;8.73;;
83560;SDS011;73534;52.584;13.392;2023-11-18T07:21:25;13.77;;;8.55;;
83560;SDS011;73534;52.584;13.392;2023-11-18T07:23:50;16.33;;;9.07;;
83560;SDS011;73534;52.584;13.392;2023-11-18T07:26:16;17.63;;;10.30;;
83560;SDS011;73534;52.584;13.392;2023-11-18T07:28:41;16.75;;;8.88;;
83560;SDS011;73534;52.584;13.392;2023-11-18T07:31:07;14.88;;;8.93;;
83560;SDS011;73534;52.584;13.392;2023-11-18T07:33:33;16.83;;;8.95;;
83560;SDS011;73534;52.584;13.392;2023-11-18T07:35:58;15.38;;;8.55;;
83560;SDS011;73534;52.584;13.392;2023-11-18T07:38:23;13.25;;;8.80;;
83560;SDS011;73534;52.584;13.392;2023-11-18T07:40:49;15.25;;;9.32;;
83560;SDS011;73534;52.584;13.392;2023-11-18T07:43:14;16.60;;;9.38;;
83560;SDS011;73534;52.584;13.392;2023-11-18T07:45:40;15.02;;;8.63;;
83560;SDS011;73534;52.584;13.392;2023-11-18T07:48:07;15.63;;;9.18;;
83560;SDS011;73534;52.584;13.392;2023-11-18T07:50:34;14.77;;;8.20;;
83560;SDS011;73534;52.584;13.392;2023-11-18T07:53:00;14.48;;;9.30;;
83560;SDS011;73534;52.584;13.392;2023-11-18T07:55:25;15.52;;;9.63;;
83560;SDS011;73534;52.584;13.392;2023-11-18T07:57:51;14.93;;;9.55;;
83560;SDS011;73534;52.584;13.392;2023-11-18T08:00:19;14.23;;;9.50;;
83560;SDS011;73534;52.584;13.392;2023-11-18T08:02:45;16.55;;;9.40;;
83560;SDS011;73534;52.584;13.392;2023-11-18T08:05:10;15.77;;;9.20;;
83560;SDS011;73534;52.584;13.392;2023-11-18T08:07:39;14.75;;;9.10;;
83560;SDS011;73534;52.584;13.392;2023-11-18T08:10:05;15.10;;;9.10;;
83560;SDS011;73534;52.584;13.392;2023-11-18T08:12:31;20.98;;;9.77;;
83560;SDS011;73534;52.584;13.392;2023-11-18T08:14:57;14.40;;;7.82;;
83560;SDS011;73534;52.584;13.392;2023-11-18T08:17:24;13.52;;;8.40;;
83560;SDS011;73534;52.584;13.392;2023-11-18T08:19:50;14.18;;;8.43;;
83560;SDS011;73534;52.584;13.392;2023-11-18T08:22:16;13.55;;;8.73;;
83560;SDS011;73534;52.584;13.392;2023-11-18T08:24:43;16.17;;;8.75;;
83560;SDS011;73534;52.584;13.392;2023-11-18T08:27:09;12.98;;;7.10;;
83560;SDS011;73534;52.584;13.392;2023-11-18T08:29:34;10.70;;;7.43;;
83560;SDS011;73534;52.584;13.392;2023-11-18T08:32:00;12.65;;;7.45;;
83560;SDS011;73534;52.584;13.392;2023-11-18T08:34:25;11.20;;;7.50;;
83560;SDS011;73534;52.584;13.392;2023-11-18T08:36:51;12.80;;;8.27;;
83560;SDS011;73534;52.584;13.392;2023-11-18T08:39:16;10.10;;;6.60;;
83560;SDS011;73534;52.584;13.392;2023-11-18T08:41:44;11.02;;;6.82;;
83560;SDS011;73534;52.584;13.392;2023-11-18T08:44:10;13.13;;;7.10;;
83560;SDS011;73534;52.584;13.392;2023-11-18T08:46:38;11.40;;;7.43;;
83560;SDS011;73534;52.584;13.392;2023-11-18T08:49:04;10.27;;;6.50;;
83560;SDS011;73534;52.584;13.392;2023-11-18T08:51:36;10.38;;;7.18;;
83560;SDS011;73534;52.584;13.392;2023-11-18T08:54:06;10.85;;;7.45;;
83560;SDS011;73534;52.584;13.392;2023-11-18T08:56:50;11.30;;;6.57;;
83560;SDS011;73534;52.584;13.392;2023-11-18T08:59:17;13.85;;;7.93;;
83560;SDS011;73534;52.584;13.392;2023-11-18T09:01:47;11.38;;;7.22;;
83560;SDS011;73534;52.584;13.392;2023-11-18T09:04:14;11.93;;;6.57;;
83560;SDS011;73534;52.584;13.392;2023-11-18T09:06:39;9.48;;;5.97;;
83560;SDS011;73534;52.584;13.392;2023-11-18T09:09:05;12.55;;;7.78;;
83560;SDS011;73534;52.584;13.392;2023-11-18T09:11:35;10.20;;;6.65;;
83560;SDS011;73534;52.584;13.392;2023-11-18T09:14:02;12.75;;;7.63;;
83560;SDS011;73534;52.584;13.392;2023-11-18T09:16:28;12.07;;;6.78;;
83560;SDS011;73534;52.584;13.392;2023-11-18T09:18:54;11.13;;;7.70;;
83560;SDS011;73534;52.584;13.392;2023-11-18T09:21:20;12.85;;;8.30;;
83560;SDS011;73534;52.584;13.392;2023-11-18T09:23:50;9.27;;;6.68;;
83560;SDS011;73534;52.584;13.392;2023-11-18T09:26:15;10.98;;;6.03;;
83560;SDS011;73534;52.584;13.392;2023-11-18T09:28:41;9.27;;;6.03;;
83560;SDS011;73534;52.584;13.392;2023-11-18T09:31:07;8.30;;;5.45;;
83560;SDS011;73534;52.584;13.392;2023-11-18T09:33:36;8.75;;;6.13;;
83560;SDS011;73534;52.584;13.392;2023-11-18T09:36:05;9.25;;;6.00;;
83560;SDS011;73534;52.584;13.392;2023-11-18T09:38:33;10.07;;;6.70;;
83560;SDS011;73534;52.584;13.392;2023-11-18T09:41:00;9.25;;;6.43;;
83560;SDS011;73534;52.584;13.392;2023-11-18T09:45:57;9.15;;;5.88;;
83560;SDS011;73534;52.584;13.392;2023-11-18T09:48:29;8.38;;;5.65;;
83560;SDS011;73534;52.584;13.392;2023-11-18T09:50:54;7.70;;;4.93;;
83560;SDS011;73534;52.584;13.392;2023-11-18T09:53:22;9.27;;;6.47;;
83560;SDS011;73534;52.584;13.392;2023-11-18T09:55:59;9.50;;;6.13;;
83560;SDS011;73534;52.584;13.392;2023-11-18T09:58:32;11.02;;;6.82;;
83560;SDS011;73534;52.584;13.392;2023-11-18T10:01:06;10.13;;;6.15;;
83560;SDS011;73534;52.584;13.392;2023-11-18T10:03:31;11.30;;;6.97;;
83560;SDS011;73534;52.584;13.392;2023-11-18T10:06:01;9.20;;;6.22;;
83560;SDS011;73534;52.584;13.392;2023-11-18T10:08:29;9.20;;;5.93;;
83560;SDS011;73534;52.584;13.392;2023-11-18T10:10:56;7.93;;;5.53;;
83560;SDS011;73534;52.584;13.392;2023-11-18T10:13:30;7.15;;;5.80;;
83560;SDS011;73534;52.584;13.392;2023-11-18T10:15:56;8.88;;;5.38;;
83560;SDS011;73534;52.584;13.392;2023-11-18T10:18:22;7.47;;;5.07;;
83560;SDS011;73534;52.584;13.392;2023-11-18T10:20:49;6.72;;;5.13;;
83560;SDS011;73534;52.584;13.392;2023-11-18T10:23:17;8.45;;;4.82;;
83560;SDS011;73534;52.584;13.392;2023-11-18T10:25:56;7.65;;;5.03;;
83560;SDS011;73534;52.584;13.392;2023-11-18T10:28:33;7.60;;;5.50;;
83560;SDS011;73534;52.584;13.392;2023-11-18T10:31:00;9.65;;;5.35;;
83560;SDS011;73534;52.584;13.392;2023-11-18T10:33:28;9.10;;;6.70;;
83560;SDS011;73534;52.584;13.392;2023-11-18T10:35:58;8.00;;;6.05;;
83560;SDS011;73534;52.584;13.392;2023-11-18T10:38:28;9.05;;;6.00;;
83560;SDS011;73534;52.584;13.392;2023-11-18T10:40:57;8.90;;;6.30;;
83560;SDS011;73534;52.584;13.392;2023-11-18T10:43:25;7.45;;;5.75;;
83560;SDS011;73534;52.584;13.392;2023-11-18T10:48:42;8.43;;;5.03;;
83560;SDS011;73534;52.584;13.392;2023-11-18T10:51:12;7.15;;;4.88;;
83560;SDS011;73534;52.584;13.392;2023-11-18T10:53:40;6.53;;;4.68;;
83560;SDS011;73534;52.584;13.392;2023-11-18T10:56:25;6.60;;;4.53;;
83560;SDS011;73534;52.584;13.392;2023-11-18T10:58:58;5.45;;;4.07;;
83560;SDS011;73534;52.584;13.392;2023-11-18T11:01:36;6.82;;;5.10;;
83560;SDS011;73534;52.584;13.392;2023-11-18T11:04:07;9.05;;;5.43;;
83560;SDS011;73534;52.584;13.392;2023-11-18T11:06:43;8.48;;;5.65;;
83560;SDS011;73534;52.584;13.392;2023-11-18T11:09:17;8.38;;;5.63;;
83560;SDS011;73534;52.584;13.392;2023-11-18T11:11:46;10.77;;;5.40;;
83560;SDS011;73534;52.584;13.392;2023-11-18T11:14:14;7.88;;;6.28;;
83560;SDS011;73534;52.584;13.392;2023-11-18T11:16:44;7.53;;;5.90;;
83560;SDS011;73534;52.584;13.392;2023-11-18T11:19:13;8.38;;;5.82;;
83560;SDS011;73534;52.584;13.392;2023-11-18T11:21:55;9.18;;;5.95;;
83560;SDS011;73534;52.584;13.392;2023-11-18T11:29:51;8.15;;;5.63;;
83560;SDS011;73534;52.584;13.392;2023-11-18T11:32:26;7.32;;;5.53;;
83560;SDS011;73534;52.584;13.392;2023-11-18T11:35:01;7.90;;;5.55;;
83560;SDS011;73534;52.584;13.392;2023-11-18T11:37:33;7.70;;;5.65;;
83560;SDS011;73534;52.584;13.392;2023-11-18T11:40:02;7.15;;;5.30;;
83560;SDS011;73534;52.584;13.392;2023-11-18T11:42:34;8.98;;;5.65;;
83560;SDS011;73534;52.584;13.392;2023-11-18T11:45:00;8.55;;;5.63;;
83560;SDS011;73534;52.584;13.392;2023-11-18T11:47:27;7.82;;;5.32;;
83560;SDS011;73534;52.584;13.392;2023-11-18T11:52:35;9.35;;;6.22;;
83560;SDS011;73534;52.584;13.392;2023-11-18T11:55:07;7.97;;;5.15;;
83560;SDS011;73534;52.584;13.392;2023-11-18T11:57:38;8.82;;;5.72;;
83560;SDS011;73534;52.584;13.392;2023-11-18T12:00:04;7.82;;;5.53;;
83560;SDS011;73534;52.584;13.392;2023-11-18T12:02:40;8.95;;;5.70;;
83560;SDS011;73534;52.584;13.392;2023-11-18T12:05:15;8.35;;;5.90;;
83560;SDS011;73534;52.584;13.392;2023-11-18T12:07:43;11.35;;;6.72;;
83560;SDS011;73534;52.584;13.392;2023-11-18T12:10:11;8.35;;;6.10;;
83560;SDS011;73534;52.584;13.392;2023-11-18T12:12:40;10.50;;;6.28;;
83560;SDS011;73534;52.584;13.392;2023-11-18T12:15:07;10.55;;;6.90;;
83560;SDS011;73534;52.584;13.392;2023-11-18T12:18:16;10.35;;;7.05;;
83560;SDS011;73534;52.584;13.392;2023-11-18T12:20:38;10.85;;;7.72;;
83560;SDS011;73534;52.584;13.392;2023-11-18T12:23:07;13.38;;;7.95;;
83560;SDS011;73534;52.584;13.392;2023-11-18T12:25:39;19.70;;;10.90;;
83560;SDS011;73534;52.584;13.392;2023-11-18T12:28:09;12.88;;;8.70;;
83560;SDS011;73534;52.584;13.392;2023-11-18T12:33:03;10.80;;;6.78;;
83560;SDS011;73534;52.584;13.392;2023-11-18T12:35:57;10.38;;;6.72;;
83560;SDS011;73534;52.584;13.392;2023-11-18T12:41:35;10.52;;;7.43;;
83560;SDS011;73534;52.584;13.392;2023-11-18T12:46:47;13.52;;;9.48;;
83560;SDS011;73534;52.584;13.392;2023-11-18T12:49:18;12.57;;;8.43;;
83560;SDS011;73534;52.584;13.392;2023-11-18T12:51:50;6.95;;;5.22;;
83560;SDS011;73534;52.584;13.392;2023-11-18T12:54:20;6.03;;;5.00;;
83560;SDS011;73534;52.584;13.392;2023-11-18T12:56:49;6.80;;;5.18;;
83560;SDS011;73534;52.584;13.392;2023-11-18T12:59:18;8.80;;;7.07;;
83560;SDS011;73534;52.584;13.392;2023-11-18T13:01:49;10.48;;;7.35;;
83560;SDS011;73534;52.584;13.392;2023-11-18T13:04:23;10.05;;;6.90;;
83560;SDS011;73534;52.584;13.392;2023-11-18T13:06:49;10.00;;;7.43;;
83560;SDS011;73534;52.584;13.392;2023-11-18T13:09:16;8.20;;;6.13;;
83560;SDS011;73534;52.584;13.392;2023-11-18T13:11:57;8.07;;;6.13;;
83560;SDS011;73534;52.584;13.392;2023-11-18T13:14:29;8.30;;;6.15;;
83560;SDS011;73534;52.584;13.392;2023-11-18T13:17:11;7.82;;;5.70;;
83560;SDS011;73534;52.584;13.392;2023-11-18T13:19:38;7.45;;;5.78;;
83560;SDS011;73534;52.584;13.392;2023-11-18T13:22:14;8.95;;;6.28;;
83560;SDS011;73534;52.584;13.392;2023-11-18T13:24:40;22.45;;;17.63;;
83560;SDS011;73534;52.584;13.392;2023-11-18T13:27:09;14.77;;;9.63;;
83560;SDS011;73534;52.584;13.392;2023-11-18T13:29:35;12.90;;;9.85;;
83560;SDS011;73534;52.584;13.392;2023-11-18T13:32:00;9.88;;;6.93;;
83560;SDS011;73534;52.584;13.392;2023-11-18T13:34:30;15.23;;;10.73;;
83560;SDS011;73534;52.584;13.392;2023-11-18T13:36:57;17.13;;;10.75;;
83560;SDS011;73534;52.584;13.392;2023-11-18T13:39:25;13.30;;;8.88;;
83560;SDS011;73534;52.584;13.392;2023-11-18T13:41:55;13.68;;;7.63;;
83560;SDS011;73534;52.584;13.392;2023-11-18T13:44:35;16.25;;;10.32;;
83560;SDS011;73534;52.584;13.392;2023-11-18T13:47:03;9.95;;;6.40;;
83560;SDS011;73534;52.584;13.392;2023-11-18T13:49:30;9.95;;;6.65;;
83560;SDS011;73534;52.584;13.392;2023-11-18T13:52:04;9.93;;;6.57;;
83560;SDS011;73534;52.584;13.392;2023-11-18T13:54:32;8.75;;;6.28;;
83560;SDS011;73534;52.584;13.392;2023-11-18T13:56:58;12.35;;;7.00;;
83560;SDS011;73534;52.584;13.392;2023-11-18T13:59:26;12.60;;;8.30;;
83560;SDS011;73534;52.584;13.392;2023-11-18T14:01:53;14.35;;;8.90;;
83560;SDS011;73534;52.584;13.392;2023-11-18T14:04:21;11.73;;;7.50;;
83560;SDS011;73534;52.584;13.392;2023-11-18T14:06:50;9.93;;;7.25;;
83560;SDS011;73534;52.584;13.392;2023-11-18T14:09:17;9.45;;;6.93;;
83560;SDS011;73534;52.584;13.392;2023-11-18T14:11:44;9.25;;;6.80;;
83560;SDS011;73534;52.584;13.392;2023-11-18T14:14:10;10.15;;;6.95;;
83560;SDS011;73534;52.584;13.392;2023-11-18T14:16:35;10.75;;;6.53;;
83560;SDS011;73534;52.584;13.392;2023-11-18T14:19:00;12.70;;;7.15;;
83560;SDS011;73534;52.584;13.392;2023-11-18T14:21:25;10.30;;;6.43;;
83560;SDS011;73534;52.584;13.392;2023-11-18T14:23:51;10.05;;;6.95;;
83560;SDS011;73534;52.584;13.392;2023-11-18T14:26:16;9.27;;;7.03;;
83560;SDS011;73534;52.584;13.392;2023-11-18T14:28:41;10.55;;;6.72;;
83560;SDS011;73534;52.584;13.392;2023-11-18T14:31:08;10.10;;;6.05;;
83560;SDS011;73534;52.584;13.392;2023-11-18T14:33:34;11.52;;;7.20;;
83560;SDS011;73534;52.584;13.392;2023-11-18T14:36:00;8.75;;;6.47;;
83560;SDS011;73534;52.584;13.392;2023-11-18T14:38:30;9.20;;;6.80;;
83560;SDS011;73534;52.584;13.392;2023-11-18T14:40:55;9.77;;;6.65;;
83560;SDS011;73534;52.584;13.392;2023-11-18T14:43:21;11.07;;;7.28;;
83560;SDS011;73534;52.584;13.392;2023-11-18T14:45:46;9.13;;;7.22;;
83560;SDS011;73534;52.584;13.392;2023-11-18T14:48:12;11.25;;;9.43;;
83560;SDS011;73534;52.584;13.392;2023-11-18T14:50:39;9.30;;;6.13;;
83560;SDS011;73534;52.584;13.392;2023-11-18T14:53:04;8.80;;;6.40;;